Time;durP1;ratioP1;P1;durP2;ratioP2;P2;SDS_P1;SDS_P2;PMS_P1;PMS_P2;Temp;Humidity;BMP_temperature;BMP_pressure;BME280_temperature;BME280_humidity;BME280_pressure;Samples;Min_cycle;Max_cycle;Signal;HPM_P1;HPM_P2
2021/01/15 00:01:25;;;;;;;0.80;0.80;;;;;;;-1.27;76.87;96806.19;299395;220;63005;-63
2021/01/15 00:06:26;;;;;;;0.80;0.80;;;;;;;-1.27;76.87;96811.50;299395;223;63008;-63
2021/01/15 00:11:32;;;;;;;0.80;0.80;;;;;;;-1.32;76.62;96812.16;299395;217;63004;-63
2021/01/15 00:16:34;;;;;;;0.80;0.80;;;;;;;-1.37;77.94;96818.13;299395;224;63009;-63
2021/01/15 00:21:35;;;;;;;0.80;0.80;;;;;;;-1.40;76.44;96807.13;299395;211;63005;-63
2021/01/15 00:26:40;;;;;;;0.80;0.80;;;;;;;-1.35;76.32;96816.06;299395;203;63009;-63
2021/01/15 00:31:48;;;;;;;0.80;0.80;;;;;;;-1.42;76.32;96820.66;299417;233;63005;-61
2021/01/15 00:36:50;;;;;;;0.80;0.80;;;;;;;-1.43;75.89;96821.69;299395;224;63009;-63
2021/01/15 00:41:50;;;;;;;0.80;0.80;;;;;;;-1.36;75.46;96821.59;299395;293;63004;-62
2021/01/15 00:46:54;;;;;;;0.80;0.80;;;;;;;-1.50;75.17;96823.59;299395;215;63005;-62
2021/01/15 00:51:56;;;;;;;0.80;0.80;;;;;;;-1.45;75.54;96826.41;299417;288;63005;-63
2021/01/15 00:56:58;;;;;;;0.90;0.90;;;;;;;-1.44;74.04;96822.72;299395;347;63009;-55
2021/01/15 01:01:59;;;;;;;0.90;0.90;;;;;;;-1.53;74.27;96824.03;299395;239;63005;-62
2021/01/15 01:07:01;;;;;;;0.90;0.90;;;;;;;-1.52;74.14;96823.00;299395;325;63019;-62
2021/01/15 01:12:03;;;;;;;0.88;0.88;;;;;;;-1.61;73.26;96832.28;299395;312;63004;-62
2021/01/15 01:17:04;;;;;;;0.80;0.80;;;;;;;-1.58;74.52;96833.69;299395;349;63009;-65
2021/01/15 01:22:05;;;;;;;0.80;0.80;;;;;;;-1.47;73.49;96836.47;299395;217;63005;-61
2021/01/15 01:27:06;;;;;;;0.80;0.80;;;;;;;-1.45;74.15;96842.38;299395;273;63013;-63
2021/01/15 01:32:06;;;;;;;0.80;0.80;;;;;;;-1.49;73.35;96841.19;299395;202;63012;-62
2021/01/15 01:37:07;;;;;;;0.90;0.90;;;;;;;-1.44;74.12;96843.22;299395;258;63009;-63
2021/01/15 01:42:09;;;;;;;0.80;0.80;;;;;;;-1.48;74.00;96848.16;299394;241;64009;-62
2021/01/15 01:47:10;;;;;;;0.80;0.80;;;;;;;-1.39;70.80;96849.47;299395;203;63009;-63
2021/01/15 01:52:11;;;;;;;0.80;0.80;;;;;;;-1.52;71.60;96852.28;299395;327;63005;-62
2021/01/15 01:57:12;;;;;;;0.80;0.80;;;;;;;-1.48;71.84;96864.12;299395;236;63020;-63
2021/01/15 02:02:14;;;;;;;0.80;0.80;;;;;;;-1.53;71.42;96866.59;299395;313;63005;-61
2021/01/15 02:07:15;;;;;;;0.80;0.80;;;;;;;-1.63;70.59;96874.25;299395;205;63009;-61
2021/01/15 02:12:48;;;;;;;0.80;0.80;;;;;;;-1.70;71.77;96876.13;299395;231;63004;-63
2021/01/15 02:17:54;;;;;;;0.80;0.80;;;;;;;-1.69;72.19;96880.44;299395;204;63009;-62
2021/01/15 02:23:22;;;;;;;0.80;0.80;;;;;;;-1.71;71.81;96887.81;299395;204;63005;-63
2021/01/15 02:29:03;;;;;;;0.80;0.80;;;;;;;-1.70;70.79;96887.59;299395;208;63008;-63
2021/01/15 02:34:45;;;;;;;0.80;0.80;;;;;;;-1.74;68.97;96885.59;299395;224;63009;-62
2021/01/15 02:40:04;;;;;;;0.80;0.80;;;;;;;-1.74;70.53;96897.06;299395;213;63009;-63
2021/01/15 02:45:11;;;;;;;0.80;0.80;;;;;;;-1.77;71.43;96897.50;299395;199;63005;-63
2021/01/15 02:50:12;;;;;;;0.80;0.80;;;;;;;-1.86;72.70;96897.94;299395;208;63008;-63
2021/01/15 02:55:14;;;;;;;0.80;0.80;;;;;;;-1.88;70.75;96897.34;299395;220;63004;-63
2021/01/15 03:00:23;;;;;;;0.80;0.80;;;;;;;-1.96;71.48;96897.59;299395;216;63009;-64
2021/01/15 03:05:30;;;;;;;0.80;0.80;;;;;;;-2.04;72.32;96899.47;299395;257;63004;-64
2021/01/15 03:10:33;;;;;;;0.80;0.80;;;;;;;-2.12;73.34;96898.94;299395;345;63009;-64
2021/01/15 03:15:37;;;;;;;0.80;0.80;;;;;;;-2.11;72.11;96896.06;299395;231;63013;-64
2021/01/15 03:20:39;;;;;;;0.80;0.80;;;;;;;-2.08;71.94;96900.13;299395;249;63009;-64
2021/01/15 03:25:40;;;;;;;0.80;0.80;;;;;;;-2.15;71.34;96905.47;299395;297;63004;-65
2021/01/15 03:30:41;;;;;;;0.70;0.70;;;;;;;-2.18;72.40;96916.53;299395;196;63009;-65
2021/01/15 03:35:42;;;;;;;0.80;0.80;;;;;;;-2.18;71.69;96916.53;299395;217;63005;-67
2021/01/15 03:40:47;;;;;;;0.80;0.80;;;;;;;-2.24;72.08;96920.03;299395;208;63009;-66
2021/01/15 03:45:52;;;;;;;0.80;0.80;;;;;;;-2.29;72.45;96922.50;299395;211;63005;-65
2021/01/15 03:50:54;;;;;;;0.80;0.80;;;;;;;-2.40;72.24;96936.44;299395;203;63009;-66
2021/01/15 03:55:58;;;;;;;0.80;0.80;;;;;;;-2.41;73.76;96942.78;299395;284;63004;-66
2021/01/15 04:00:59;;;;;;;;;;;;;;;-2.50;73.89;96941.41;299996;981;6004;-67
2021/01/15 04:06:00;;;;;;;0.80;0.80;;;;;;;-2.51;74.58;96951.22;299400;297;63009;-67
2021/01/15 04:11:01;;;;;;;0.80;0.80;;;;;;;-2.57;74.74;96954.69;299395;273;63004;-68
2021/01/15 04:16:02;;;;;;;0.80;0.80;;;;;;;-2.65;76.17;96952.25;299395;278;63009;-67
2021/01/15 04:21:05;;;;;;;0.80;0.80;;;;;;;-2.65;76.29;96962.88;299395;205;63005;-66
2021/01/15 04:26:06;;;;;;;0.80;0.80;;;;;;;-2.73;76.20;96961.25;299395;300;63009;-68
2021/01/15 04:31:07;;;;;;;0.80;0.80;;;;;;;-2.80;77.16;96968.44;299395;387;63013;-68
2021/01/15 04:36:11;;;;;;;0.90;0.90;;;;;;;-2.90;77.90;96977.84;299395;218;63009;-68
2021/01/15 04:41:22;;;;;;;0.90;0.90;;;;;;;-2.94;77.56;96980.09;299395;335;63004;-68
2021/01/15 04:46:24;;;;;;;0.90;0.90;;;;;;;-2.99;78.04;96993.16;299395;218;63009;-68
2021/01/15 04:51:27;;;;;;;0.88;0.88;;;;;;;-3.01;78.12;96989.06;299395;196;63013;-68
2021/01/15 04:56:48;;;;;;;0.90;0.90;;;;;;;-3.02;78.22;96993.56;299395;196;63008;-69
2021/01/15 05:01:49;;;;;;;0.90;0.90;;;;;;;-2.99;77.89;96998.47;299396;303;63004;-67
2021/01/15 05:06:52;;;;;;;0.90;0.90;;;;;;;-3.05;78.57;97001.94;299396;204;63012;-67
2021/01/15 05:11:53;;;;;;;0.80;0.80;;;;;;;-3.11;77.83;97000.09;299396;208;63004;-67
2021/01/15 05:17:03;;;;;;;0.80;0.80;;;;;;;-3.11;78.08;97005.41;299396;333;63009;-68
2021/01/15 05:22:05;;;;;;;0.80;0.80;;;;;;;-3.15;78.39;97015.63;299396;247;63005;-54
2021/01/15 05:32:30;;;;;;;0.90;0.90;;;;;;;-3.17;78.15;97025.62;299396;222;63005;-54
2021/01/15 05:37:31;;;;;;;0.90;0.90;;;;;;;-3.14;77.43;97027.06;299396;214;63009;-67
2021/01/15 05:42:49;;;;;;;0.90;0.90;;;;;;;-3.23;77.75;97034.41;299397;232;63005;-69
2021/01/15 05:47:51;;;;;;;0.90;0.90;;;;;;;-3.21;77.64;97042.97;299397;234;63009;-70
2021/01/15 05:52:57;;;;;;;0.90;0.90;;;;;;;-3.19;76.85;97051.56;299397;227;63005;-56
2021/01/15 05:58:10;;;;;;;1.25;1.20;;;;;;;-3.32;77.00;97062.12;299396;220;63009;-54
2021/01/15 06:03:14;;;;;;;0.90;0.90;;;;;;;-3.24;78.07;97069.09;299396;222;63004;-69
2021/01/15 06:08:15;;;;;;;0.90;0.90;;;;;;;-3.25;77.96;97070.12;299418;224;63009;-69
2021/01/15 06:13:36;;;;;;;0.90;0.90;;;;;;;-3.24;78.04;97085.03;299396;232;63005;-69
2021/01/15 06:18:54;;;;;;;0.80;0.80;;;;;;;-3.25;77.93;97096.66;299396;202;63008;-68
2021/01/15 06:23:59;;;;;;;0.90;0.90;;;;;;;-3.32;78.75;97096.63;299396;212;63004;-70
2021/01/15 06:29:12;;;;;;;0.90;0.90;;;;;;;-3.33;78.56;97110.09;299418;219;63009;-68
2021/01/15 06:34:15;;;;;;;0.80;0.80;;;;;;;-3.43;77.79;97121.91;299396;328;63004;-69
2021/01/15 06:39:18;;;;;;;2.08;2.00;;;;;;;-3.49;78.38;97128.03;299397;372;63009;-71
2021/01/15 06:44:20;;;;;;;0.82;0.82;;;;;;;-3.46;78.45;97127.59;299397;211;63005;-69
2021/01/15 06:49:31;;;;;;;0.90;0.90;;;;;;;-3.51;79.03;97131.88;299395;197;63009;-69
2021/01/15 06:54:38;;;;;;;0.90;0.90;;;;;;;-3.56;78.77;97140.44;299395;206;63004;-70
2021/01/15 06:59:46;;;;;;;0.90;0.90;;;;;;;-3.52;78.67;97147.00;299395;202;63009;-55
2021/01/15 07:05:01;;;;;;;0.90;0.90;;;;;;;-3.47;78.43;97160.47;299395;205;63009;-68
2021/01/15 07:10:04;;;;;;;0.90;0.90;;;;;;;-3.48;78.95;97158.84;299417;210;63009;-69
2021/01/15 07:15:17;;;;;;;0.88;0.88;;;;;;;-3.54;79.24;97170.25;299395;363;63005;-66
2021/01/15 07:20:19;;;;;;;0.90;0.90;;;;;;;-3.57;78.45;97173.28;299395;307;63009;-70
2021/01/15 07:25:21;;;;;;;1.10;1.10;;;;;;;-3.65;78.87;97173.44;299395;258;63004;-70
2021/01/15 07:30:28;;;;;;;0.90;0.90;;;;;;;-3.59;79.72;97180.63;299395;203;63018;-71
2021/01/15 07:35:29;;;;;;;0.88;0.88;;;;;;;-3.58;79.08;97179.59;299395;282;63005;-71
2021/01/15 07:40:35;;;;;;;0.90;0.90;;;;;;;-3.52;78.50;97186.78;299395;206;63008;-70
2021/01/15 07:45:43;;;;;;;0.80;0.80;;;;;;;-3.46;77.48;97191.25;299395;202;63004;-57
2021/01/15 07:50:46;;;;;;;0.85;0.85;;;;;;;-3.45;78.00;97197.38;299395;226;63009;-71
2021/01/15 07:55:52;;;;;;;0.88;0.88;;;;;;;-3.32;78.02;97210.72;299395;220;63005;-72
2021/01/15 08:01:04;;;;;;;0.90;0.90;;;;;;;-3.41;77.75;97209.25;299395;200;63009;-56
2021/01/15 08:06:06;;;;;;;0.80;0.80;;;;;;;-3.42;78.13;97215.56;299395;222;63005;-58
2021/01/15 08:11:11;;;;;;;0.90;0.90;;;;;;;-3.50;78.74;97229.84;299395;199;63009;-56
2021/01/15 08:16:13;;;;;;;0.90;0.90;;;;;;;-3.48;79.06;97240.25;299395;215;63004;-57
2021/01/15 08:21:19;;;;;;;0.80;0.80;;;;;;;-3.50;79.24;97256.38;299395;214;63009;-57
2021/01/15 08:26:31;;;;;;;0.90;0.90;;;;;;;-3.42;78.94;97258.84;299395;272;63005;-71
2021/01/15 08:31:32;;;;;;;0.90;0.90;;;;;;;-3.32;79.16;97263.81;299395;278;63021;-57
2021/01/15 08:36:35;;;;;;;0.90;0.90;;;;;;;-3.29;79.17;97275.84;299395;257;63005;-72
2021/01/15 08:41:36;;;;;;;0.90;0.90;;;;;;;-3.26;79.24;97278.13;299395;198;63009;-56
2021/01/15 08:46:38;;;;;;;0.90;0.90;;;;;;;-3.22;78.36;97284.69;299395;250;63004;-55
2021/01/15 08:51:40;;;;;;;0.80;0.80;;;;;;;-3.16;77.53;97279.41;299395;210;63009;-56
2021/01/15 08:56:49;;;;;;;0.80;0.80;;;;;;;-3.12;77.64;97301.06;299395;229;63005;-55
2021/01/15 09:01:51;;;;;;;0.80;0.80;;;;;;;-3.08;78.34;97307.59;299395;231;63009;-56
2021/01/15 09:06:55;;;;;;;0.82;0.82;;;;;;;-3.07;78.47;97314.56;299395;228;63005;-57
2021/01/15 09:12:04;;;;;;;0.90;0.90;;;;;;;-3.01;77.66;97324.38;299377;222;125009;-56
2021/01/15 09:17:09;;;;;;;0.80;0.80;;;;;;;-2.93;77.78;97326.06;299395;218;63004;-58
2021/01/15 09:22:17;;;;;;;0.90;0.90;;;;;;;-2.83;76.84;97327.34;299395;285;63009;-55
2021/01/15 09:27:23;;;;;;;0.90;0.90;;;;;;;-2.70;76.27;97332.69;299395;238;63005;-55
2021/01/15 09:32:27;;;;;;;0.80;0.80;;;;;;;-2.62;76.17;97338.84;299395;302;63008;-55
2021/01/15 09:37:28;;;;;;;0.90;0.90;;;;;;;-2.49;75.20;97338.91;299417;255;63004;-77
2021/01/15 09:42:30;;;;;;;0.90;0.90;;;;;;;-2.55;73.74;97345.84;299395;219;63005;-68
2021/01/15 09:47:35;;;;;;;0.90;0.90;;;;;;;-2.50;73.90;97355.87;299395;219;63009;-74
2021/01/15 09:52:37;;;;;;;0.80;0.80;;;;;;;-2.33;73.51;97365.13;299417;224;63009;-55
2021/01/15 09:57:43;;;;;;;0.80;0.80;;;;;;;-2.09;72.46;97361.13;299395;238;63005;-58
2021/01/15 10:02:44;;;;;;;0.80;0.80;;;;;;;-2.11;72.10;97373.78;299395;258;63008;-73
2021/01/15 10:07:46;;;;;;;0.80;0.80;;;;;;;-2.17;72.96;97380.72;299395;358;63004;-72
2021/01/15 10:12:50;;;;;;;0.80;0.80;;;;;;;-2.06;72.25;97377.47;299395;226;63009;-72
2021/01/15 10:17:54;;;;;;;0.80;0.80;;;;;;;-1.87;71.89;97377.72;299417;271;63005;-55
2021/01/15 10:22:55;;;;;;;0.90;0.90;;;;;;;-1.72;70.85;97378.31;299417;216;63009;-71
2021/01/15 10:27:58;;;;;;;0.90;0.90;;;;;;;-1.57;69.63;97381.63;299373;221;63005;-70
2021/01/15 10:32:59;;;;;;;1.00;1.00;;;;;;;-1.66;69.95;97385.50;299395;273;63009;-71
2021/01/15 10:38:00;;;;;;;0.80;0.80;;;;;;;-1.68;70.94;97390.19;299395;221;63004;-70
2021/01/15 10:43:00;;;;;;;0.95;0.95;;;;;;;-1.50;69.95;97382.44;299395;217;63009;-75
2021/01/15 10:48:03;;;;;;;0.80;0.80;;;;;;;-1.40;69.35;97388.19;299395;240;63005;-56
2021/01/15 10:53:04;;;;;;;0.90;0.90;;;;;;;-1.50;69.57;97382.44;299395;263;63009;-53
2021/01/15 10:58:06;;;;;;;0.80;0.80;;;;;;;-1.36;68.38;97378.75;299395;232;63005;-75
2021/01/15 11:03:06;;;;;;;0.80;0.80;;;;;;;-1.38;70.16;97386.13;299395;202;63009;-77
2021/01/15 11:08:08;;;;;;;0.90;0.90;;;;;;;-1.10;67.30;97387.75;299395;215;63004;-54
2021/01/15 11:13:10;;;;;;;0.90;0.90;;;;;;;-1.23;67.87;97385.09;299395;211;63009;-55
2021/01/15 11:18:11;;;;;;;0.80;0.80;;;;;;;-1.43;68.02;97388.59;299395;270;63005;-74
2021/01/15 11:23:14;;;;;;;1.33;1.33;;;;;;;-1.19;67.81;97394.31;299395;218;63021;-56
2021/01/15 11:28:15;;;;;;;1.15;1.15;;;;;;;-0.87;65.58;97393.44;299394;243;64009;-74
2021/01/15 11:33:16;;;;;;;1.02;1.02;;;;;;;-1.03;67.62;97401.87;299395;303;63009;-54
2021/01/15 11:38:18;;;;;;;0.80;0.80;;;;;;;-0.96;68.16;97392.03;299395;223;63010;-70
2021/01/15 11:43:18;;;;;;;0.80;0.80;;;;;;;-1.03;67.79;97388.53;299395;217;63009;-55
2021/01/15 11:48:19;;;;;;;0.80;0.80;;;;;;;-0.88;67.95;97383.00;299395;241;63005;-71
2021/01/15 11:53:21;;;;;;;0.80;0.80;;;;;;;-0.79;65.89;97379.91;299395;225;63004;-55
2021/01/15 11:58:25;;;;;;;0.80;0.80;;;;;;;-0.75;65.51;97389.13;299395;289;63004;-68
2021/01/15 12:03:27;;;;;;;0.80;0.80;;;;;;;-0.77;65.70;97385.03;299417;274;63009;-68
2021/01/15 12:08:28;;;;;;;0.80;0.80;;;;;;;-0.53;65.43;97378.19;299395;222;63004;-67
2021/01/15 12:13:30;;;;;;;2.12;2.08;;;;;;;-0.55;66.53;97386.37;299395;280;63009;-66
2021/01/15 12:18:31;;;;;;;0.80;0.80;;;;;;;-0.28;65.27;97376.44;299395;233;63005;-67
2021/01/15 12:23:31;;;;;;;0.80;0.80;;;;;;;-0.06;63.39;97374.28;299395;206;63008;-68
2021/01/15 12:28:32;;;;;;;0.80;0.80;;;;;;;-0.44;63.97;97379.59;299395;232;63004;-55
2021/01/15 12:33:33;;;;;;;0.82;0.82;;;;;;;-0.33;63.44;97389.56;299395;208;63005;-67
2021/01/15 12:38:37;;;;;;;0.95;0.95;;;;;;;0.10;62.34;97384.44;299395;282;63004;-55
2021/01/15 12:43:37;;;;;;;1.65;1.55;;;;;;;-0.05;62.66;97381.25;299395;232;63009;-64
2021/01/15 12:48:38;;;;;;;0.80;0.80;;;;;;;-0.14;63.54;97380.69;299395;292;63005;-55
2021/01/15 12:53:39;;;;;;;0.80;0.80;;;;;;;-0.14;63.07;97372.69;299395;212;63008;-61
2021/01/15 12:58:40;;;;;;;0.80;0.80;;;;;;;0.25;61.86;97370.81;299395;296;63004;-57
2021/01/15 13:03:41;;;;;;;0.90;0.90;;;;;;;0.06;61.03;97372.56;299395;204;63009;-67
2021/01/15 13:08:43;;;;;;;0.82;0.82;;;;;;;0.19;62.13;97382.34;299395;210;63004;-56
2021/01/15 13:13:44;;;;;;;0.80;0.80;;;;;;;0.10;62.82;97388.94;299395;197;63009;-54
2021/01/15 13:18:49;;;;;;;0.80;0.80;;;;;;;0.08;63.07;97375.81;299395;197;63005;-55
2021/01/15 13:23:50;;;;;;;0.80;0.80;;;;;;;0.11;63.85;97379.91;299417;290;63009;-65
2021/01/15 13:28:51;;;;;;;0.80;0.80;;;;;;;0.22;63.95;97392.59;299395;228;63004;-56
2021/01/15 13:33:52;;;;;;;0.80;0.80;;;;;;;0.52;62.53;97390.94;299395;203;63009;-65
2021/01/15 13:38:53;;;;;;;0.90;0.90;;;;;;;0.63;61.97;97406.25;299395;285;63005;-56
2021/01/15 13:43:56;;;;;;;1.23;1.23;;;;;;;0.73;62.72;97410.28;299395;268;63009;-56
2021/01/15 13:48:57;;;;;;;0.80;0.80;;;;;;;0.59;63.25;97410.41;299395;226;63005;-54
2021/01/15 13:53:58;;;;;;;0.90;0.90;;;;;;;0.51;64.12;97432.03;299395;209;63009;-55
2021/01/15 13:58:59;;;;;;;2.17;2.08;;;;;;;0.36;64.54;97436.81;299395;196;63004;-62
2021/01/15 14:04:03;;;;;;;1.50;1.50;;;;;;;0.15;65.57;97445.16;299395;210;63009;-61
2021/01/15 14:09:05;;;;;;;1.45;1.35;;;;;;;0.05;66.52;97461.63;299395;222;63005;-59
2021/01/15 14:14:07;;;;;;;0.90;0.90;;;;;;;0.04;67.20;97469.84;299395;207;63009;-58
2021/01/15 14:19:08;;;;;;;2.33;2.17;;;;;;;0.08;67.25;97468.41;299395;358;63005;-59
2021/01/15 14:24:09;;;;;;;0.80;0.80;;;;;;;-0.03;67.19;97488.56;299395;199;63009;-63
2021/01/15 14:29:10;;;;;;;7.35;2.22;;;;;;;-0.06;66.92;97491.66;299395;271;63004;-58
2021/01/15 14:34:13;;;;;;;1.55;1.55;;;;;;;-0.23;67.89;97495.81;299395;198;63016;-55
2021/01/15 14:39:14;;;;;;;0.90;0.90;;;;;;;-0.36;68.04;97496.69;299395;229;63005;-70
2021/01/15 14:44:16;;;;;;;0.80;0.80;;;;;;;-0.41;68.25;97510.63;299395;285;63009;-56
2021/01/15 14:49:19;;;;;;;1.62;1.52;;;;;;;-0.36;67.65;97507.34;299395;204;63004;-60
2021/01/15 14:54:20;;;;;;;0.80;0.80;;;;;;;-0.52;68.07;97523.75;299395;252;63009;-62
2021/01/15 14:59:22;;;;;;;1.90;1.80;;;;;;;-0.41;67.53;97523.97;299395;263;63004;-57
2021/01/15 15:04:25;;;;;;;1.30;1.30;;;;;;;-0.38;66.91;97533.41;299395;203;63009;-58
2021/01/15 15:09:27;;;;;;;2.87;2.78;;;;;;;-0.51;66.99;97533.41;299395;232;63005;-54
2021/01/15 15:14:34;;;;;;;1.52;1.42;;;;;;;-0.61;67.66;97541.81;299395;233;63018;-56
2021/01/15 15:19:36;;;;;;;0.80;0.80;;;;;;;-0.71;68.84;97546.75;299395;198;63004;-54
2021/01/15 15:24:37;;;;;;;0.80;0.80;;;;;;;-0.69;67.79;97556.16;299395;207;63009;-56
2021/01/15 15:29:39;;;;;;;0.80;0.80;;;;;;;-0.58;67.57;97556.56;299395;209;63004;-53
2021/01/15 15:34:40;;;;;;;0.80;0.80;;;;;;;-0.73;68.19;97573.59;299395;209;63009;-55
2021/01/15 15:39:42;;;;;;;0.80;0.80;;;;;;;-0.72;68.69;97583.25;299395;208;63005;-64
2021/01/15 15:44:44;;;;;;;0.80;0.80;;;;;;;-0.63;68.06;97591.00;299395;285;63008;-54
2021/01/15 15:49:45;;;;;;;0.80;0.80;;;;;;;-0.74;69.20;97595.94;299395;206;63004;-54
2021/01/15 15:54:46;;;;;;;0.80;0.80;;;;;;;-0.86;69.41;97602.06;299395;311;63009;-55
2021/01/15 15:59:47;;;;;;;0.80;0.80;;;;;;;-0.75;69.45;97606.81;299395;230;63004;-55
2021/01/15 16:04:47;;;;;;;1.00;1.00;;;;;;;-0.90;69.89;97612.31;299394;249;64009;-55
2021/01/15 16:09:48;;;;;;;0.80;0.80;;;;;;;-0.94;70.47;97611.06;299395;243;63005;-64
2021/01/15 16:14:49;;;;;;;1.48;1.48;;;;;;;-0.99;70.94;97621.50;299395;230;63009;-56
2021/01/15 16:19:50;;;;;;;0.80;0.80;;;;;;;-0.81;70.64;97626.28;299395;270;63004;-54
2021/01/15 16:24:59;;;;;;;0.80;0.80;;;;;;;-0.94;71.61;97636.88;299395;240;63009;-64
2021/01/15 16:30:00;;;;;;;1.00;1.00;;;;;;;-0.78;70.68;97626.69;299395;208;63005;-54
2021/01/15 16:35:02;;;;;;;1.45;1.45;;;;;;;-0.75;70.55;97636.13;299395;204;63009;-55
2021/01/15 16:40:06;;;;;;;1.33;1.33;;;;;;;-0.71;70.32;97637.38;299395;220;63005;-54
2021/01/15 16:45:09;;;;;;;1.20;1.20;;;;;;;-0.90;71.39;97654.94;299395;226;63009;-56
2021/01/15 16:50:12;;;;;;;0.80;0.80;;;;;;;-0.87;71.43;97654.53;299395;214;63004;-55
2021/01/15 16:55:14;;;;;;;0.90;0.90;;;;;;;-0.85;71.40;97660.50;299395;306;63009;-55
2021/01/15 17:00:16;;;;;;;1.58;1.48;;;;;;;-0.96;71.56;97666.41;299395;218;63005;-58
2021/01/15 17:05:17;;;;;;;0.80;0.80;;;;;;;-0.73;70.83;97672.22;299395;293;63009;-55
2021/01/15 17:10:19;;;;;;;0.80;0.80;;;;;;;-0.79;71.50;97666.84;299395;212;63005;-53
2021/01/15 17:15:20;;;;;;;1.00;1.00;;;;;;;-0.63;70.71;97677.13;299395;208;63009;-70
2021/01/15 17:20:23;;;;;;;1.23;1.23;;;;;;;-0.61;70.93;97679.59;299395;241;63004;-68
2021/01/15 17:25:27;;;;;;;1.55;1.48;;;;;;;-0.86;72.33;97682.81;299394;216;64013;-66
2021/01/15 17:30:28;;;;;;;0.90;0.90;;;;;;;-0.97;72.91;97688.72;299417;249;63005;-54
2021/01/15 17:35:29;;;;;;;0.80;0.80;;;;;;;-0.85;72.89;97695.12;299396;250;63009;-55
2021/01/15 17:40:32;;;;;;;0.80;0.80;;;;;;;-0.81;72.33;97701.69;299396;238;63005;-54
2021/01/15 17:45:35;;;;;;;0.80;0.80;;;;;;;-0.95;73.11;97708.00;299396;204;63009;-69
2021/01/15 17:50:36;;;;;;;0.88;0.88;;;;;;;-1.09;74.10;97701.00;299396;355;63004;-65
2021/01/15 17:55:40;;;;;;;1.65;1.55;;;;;;;-0.78;73.22;97706.63;299396;272;63029;-71
2021/01/15 18:00:41;;;;;;;0.90;0.90;;;;;;;-0.62;72.29;97715.25;299396;209;63005;-68
2021/01/15 18:05:43;;;;;;;0.80;0.80;;;;;;;-0.80;73.18;97715.84;299396;241;63009;-55
2021/01/15 18:10:44;;;;;;;1.27;1.27;;;;;;;-0.67;73.20;97723.84;299396;213;63009;-67
2021/01/15 18:15:46;;;;;;;0.85;0.85;;;;;;;-0.73;73.33;97720.19;299396;218;63009;-69
2021/01/15 18:20:47;;;;;;;2.12;2.03;;;;;;;-0.75;73.90;97732.88;299397;224;63004;-67
2021/01/15 18:25:48;;;;;;;0.85;0.85;;;;;;;-1.05;75.10;97736.87;299397;350;63009;-55
2021/01/15 18:30:49;;;;;;;0.80;0.80;;;;;;;-1.05;75.91;97748.34;299396;220;63005;-66
2021/01/15 18:35:50;;;;;;;0.80;0.80;;;;;;;-1.43;77.79;97761.25;299396;264;63008;-68
2021/01/15 18:40:54;;;;;;;0.80;0.80;;;;;;;-1.13;76.86;97766.31;299395;224;64004;-68
2021/01/15 18:45:55;;;;;;;0.80;0.80;;;;;;;-1.30;77.43;97757.00;299418;227;63009;-68
2021/01/15 18:50:56;;;;;;;0.80;0.80;;;;;;;-1.46;77.76;97758.97;299375;198;63004;-68
2021/01/15 18:55:57;;;;;;;0.80;0.80;;;;;;;-1.15;76.57;97760.37;299396;357;63021;-68
2021/01/15 19:00:58;;;;;;;0.80;0.80;;;;;;;-1.33;78.24;97760.06;299396;209;63005;-69
2021/01/15 19:05:59;;;;;;;0.80;0.80;;;;;;;-1.19;77.59;97767.13;299396;214;63008;-69
2021/01/15 19:11:00;;;;;;;0.80;0.80;;;;;;;-1.24;77.89;97765.03;299397;274;63004;-69
2021/01/15 19:16:01;;;;;;;0.80;0.80;;;;;;;-1.45;78.30;97757.16;299397;310;63009;-69
2021/01/15 19:21:03;;;;;;;0.80;0.80;;;;;;;-1.26;77.89;97767.06;299395;285;63004;-68
2021/01/15 19:26:04;;;;;;;0.80;0.80;;;;;;;-1.06;76.67;97768.00;299395;314;63009;-68
2021/01/15 19:31:05;;;;;;;0.80;0.80;;;;;;;-1.22;76.76;97778.16;299395;222;63005;-68
2021/01/15 19:36:06;;;;;;;0.80;0.80;;;;;;;-1.43;77.96;97787.06;299395;204;63021;-68
2021/01/15 19:41:07;;;;;;;9.60;8.80;;;;;;;-1.13;76.51;97792.97;299392;206;65004;-68
2021/01/15 19:46:08;;;;;;;0.90;0.90;;;;;;;-1.38;77.87;97789.94;299395;270;63009;-67
2021/01/15 19:51:09;;;;;;;0.75;0.75;;;;;;;-1.33;77.55;97797.34;299395;232;63004;-54
2021/01/15 19:56:10;;;;;;;0.80;0.80;;;;;;;-1.37;77.83;97797.72;299395;288;63009;-69
2021/01/15 20:01:12;;;;;;;0.80;0.80;;;;;;;-1.46;78.56;97804.22;299395;203;63005;-55
2021/01/15 20:06:13;;;;;;;0.80;0.80;;;;;;;-1.46;78.28;97792.75;299395;225;63008;-70
2021/01/15 20:11:17;;;;;;;0.80;0.80;;;;;;;-1.47;78.75;97791.94;299395;205;63004;-68
2021/01/15 20:16:20;;;;;;;0.80;0.80;;;;;;;-1.28;77.46;97800.22;299417;333;63009;-67
2021/01/15 20:21:21;;;;;;;0.80;0.80;;;;;;;-1.55;78.90;97797.41;299395;313;63004;-67
2021/01/15 20:26:29;;;;;;;0.80;0.80;;;;;;;-1.54;79.28;97799.06;299395;213;63009;-56
2021/01/15 20:31:30;;;;;;;0.80;0.80;;;;;;;-1.59;79.44;97800.66;299395;229;63005;-70
2021/01/15 20:36:34;;;;;;;0.80;0.80;;;;;;;-1.58;80.01;97808.44;299395;320;63009;-68
2021/01/15 20:41:37;;;;;;;0.80;0.80;;;;;;;-1.60;79.99;97813.13;299395;264;63004;-69
2021/01/15 20:46:39;;;;;;;0.80;0.80;;;;;;;-1.53;79.86;97807.84;299417;329;63009;-70
2021/01/15 20:51:40;;;;;;;0.80;0.80;;;;;;;-1.54;80.39;97801.72;299395;279;63010;-68
2021/01/15 20:56:41;;;;;;;0.80;0.80;;;;;;;-1.37;78.49;97796.91;299395;197;63018;-67
2021/01/15 21:01:42;;;;;;;0.80;0.80;;;;;;;-1.55;79.90;97805.37;299395;282;63005;-69
2021/01/15 21:06:43;;;;;;;0.80;0.80;;;;;;;-1.24;78.08;97802.31;299395;321;63009;-69
2021/01/15 21:11:44;;;;;;;0.80;0.80;;;;;;;-1.14;77.62;97807.28;299395;202;63004;-69
2021/01/15 21:16:46;;;;;;;1.05;1.05;;;;;;;-0.94;75.96;97807.38;299395;263;63009;-68
2021/01/15 21:21:47;;;;;;;1.33;1.33;;;;;;;-1.08;77.50;97809.19;299395;217;63005;-54
2021/01/15 21:26:51;;;;;;;1.12;1.12;;;;;;;-1.07;77.12;97808.16;299395;216;63009;-70
2021/01/15 21:31:53;;;;;;;0.80;0.80;;;;;;;-1.06;77.22;97807.16;299417;217;63005;-70
2021/01/15 21:36:54;;;;;;;0.80;0.80;;;;;;;-1.25;78.42;97810.50;299395;212;63009;-69
2021/01/15 21:41:55;;;;;;;0.80;0.80;;;;;;;-1.37;78.91;97820.84;299395;356;63000;-69
2021/01/15 21:47:00;;;;;;;0.88;0.88;;;;;;;-1.62;80.15;97819.66;299395;213;63009;-67
2021/01/15 21:52:01;;;;;;;;;;;;;;;-1.59;81.06;97825.41;299996;983;6000;-70
2021/01/15 21:57:04;;;;;;;0.90;0.90;;;;;;;-1.24;79.11;97820.13;299400;202;63004;-69
2021/01/15 22:02:05;;;;;;;0.90;0.90;;;;;;;-1.33;79.21;97827.44;299395;227;63009;-72
2021/01/15 22:07:06;;;;;;;0.80;0.80;;;;;;;-1.65;80.26;97826.19;299395;215;63005;-69
2021/01/15 22:12:07;;;;;;;0.88;0.88;;;;;;;-1.71;81.22;97832.28;299395;221;63008;-72
2021/01/15 22:17:10;;;;;;;0.80;0.80;;;;;;;-1.52;80.46;97842.28;299395;228;63004;-72
2021/01/15 22:22:11;;;;;;;0.90;0.90;;;;;;;-1.26;79.34;97838.13;299395;250;63009;-70
2021/01/15 22:27:12;;;;;;;1.10;1.10;;;;;;;-1.14;77.79;97836.59;299395;204;63011;-55
2021/01/15 22:32:13;;;;;;;1.12;1.12;;;;;;;-1.33;78.81;97846.06;299395;224;63009;-56
2021/01/15 22:37:14;;;;;;;0.85;0.85;;;;;;;-1.53;79.91;97856.59;299395;271;63005;-70
2021/01/15 22:42:15;;;;;;;0.80;0.80;;;;;;;-1.32;79.11;97849.56;299395;218;63008;-69
2021/01/15 22:47:16;;;;;;;0.90;0.90;;;;;;;-1.59;80.20;97851.22;299395;213;63004;-71
2021/01/15 22:52:17;;;;;;;0.80;0.80;;;;;;;-1.63;81.03;97850.78;299395;233;63009;-54
2021/01/15 22:57:18;;;;;;;0.80;0.80;;;;;;;-1.41;79.57;97844.41;299394;279;64004;-68
2021/01/15 23:02:23;;;;;;;0.80;0.80;;;;;;;-1.65;80.79;97841.34;299395;249;63009;-69
2021/01/15 23:07:24;;;;;;;0.85;0.85;;;;;;;-1.71;80.70;97842.91;299395;226;63005;-68
2021/01/15 23:12:25;;;;;;;0.80;0.80;;;;;;;-1.54;80.35;97833.66;299395;272;63008;-55
2021/01/15 23:17:28;;;;;;;0.80;0.80;;;;;;;-1.61;79.96;97837.28;299395;203;63004;-55
2021/01/15 23:22:29;;;;;;;0.95;0.95;;;;;;;-1.45;79.62;97842.31;299395;354;63009;-67
2021/01/15 23:27:33;;;;;;;0.80;0.80;;;;;;;-1.26;77.85;97835.47;299395;226;63004;-55
2021/01/15 23:32:34;;;;;;;0.90;0.90;;;;;;;-1.50;79.05;97840.25;299417;231;63020;-55
2021/01/15 23:37:39;;;;;;;0.80;0.80;;;;;;;-1.47;78.53;97842.53;299395;206;63005;-56
2021/01/15 23:42:40;;;;;;;0.80;0.80;;;;;;;-1.52;78.86;97844.94;299417;354;63009;-55
2021/01/15 23:47:49;;;;;;;0.80;0.80;;;;;;;-1.62;79.45;97847.09;299395;202;63004;-56
2021/01/15 23:52:54;;;;;;;0.80;0.80;;;;;;;-1.38;78.69;97849.31;299395;300;63009;-65